Time;durP1;ratioP1;P1;durP2;ratioP2;P2;SDS_P1;SDS_P2;PMS_P1;PMS_P2;Temp;Humidity;BMP_temperature;BMP_pressure;BME280_temperature;BME280_humidity;BME280_pressure;Samples;Min_cycle;Max_cycle;Signal;HPM_P1;HPM_P2
2023/04/05 00:00:26;;;;;;;62.58;36.50;;;11.20;80.60;;;;;;4591869;19;20011;-30
2023/04/05 00:02:18;;;;;;;60.00;35.40;;;11.20;82.10;;;;;;4592177;19;20031;-30
2023/04/05 00:03:53;;;;;;;52.50;33.37;;;11.20;82.60;;;;;;4591969;19;20472;-30
2023/04/05 00:05:29;;;;;;;53.50;34.97;;;11.30;82.40;;;;;;4592511;19;20537;-30
2023/04/05 00:07:07;;;;;;;56.43;34.10;;;11.30;82.50;;;;;;4592818;19;20417;-30
2023/04/05 00:08:38;;;;;;;58.07;33.53;;;11.40;82.30;;;;;;4592546;19;20425;-30
2023/04/05 00:10:09;;;;;;;50.72;30.35;;;11.40;82.30;;;;;;4593534;19;20469;-30
2023/04/05 00:11:41;;;;;;;50.88;31.85;;;11.40;82.00;;;;;;4594479;19;20035;-30
2023/04/05 00:13:14;;;;;;;55.37;31.60;;;11.40;81.90;;;;;;4594700;19;20018;-30
2023/04/05 00:14:47;;;;;;;55.30;31.47;;;11.30;81.80;;;;;;4592891;19;21101;-30
2023/04/05 00:16:19;;;;;;;54.67;29.20;;;11.30;81.80;;;;;;4592611;19;21069;-30
2023/04/05 00:17:52;;;;;;;57.40;34.45;;;11.30;82.00;;;;;;4592577;19;20436;-30
2023/04/05 00:19:23;;;;;;;70.13;39.10;;;11.30;81.70;;;;;;4592402;19;20037;-30
2023/04/05 00:20:55;;;;;;;79.55;46.40;;;11.40;81.70;;;;;;4592042;19;20819;-30
2023/04/05 00:22:30;;;;;;;78.95;47.80;;;11.30;81.90;;;;;;4593275;19;20376;-30
2023/04/05 00:24:01;;;;;;;74.50;45.70;;;11.40;82.00;;;;;;4594633;19;20046;-30
2023/04/05 00:25:33;;;;;;;73.93;46.17;;;11.30;81.90;;;;;;4594141;19;20460;-30
2023/04/05 00:27:05;;;;;;;78.35;48.88;;;11.30;81.90;;;;;;4593493;19;20537;-30
2023/04/05 00:28:37;;;;;;;109.85;55.47;;;11.30;81.70;;;;;;4593429;19;20022;-30
2023/04/05 00:30:08;;;;;;;127.43;60.92;;;11.30;81.60;;;;;;4593528;19;20014;-30
2023/04/05 00:31:43;;;;;;;108.87;54.90;;;11.30;81.50;;;;;;4592767;19;20018;-30
2023/04/05 00:33:14;;;;;;;130.80;62.75;;;11.30;81.50;;;;;;4592381;19;20445;-30
2023/04/05 00:34:47;;;;;;;137.80;65.87;;;11.30;81.40;;;;;;4591963;19;20097;-30
2023/04/05 00:36:19;;;;;;;140.32;70.80;;;11.30;81.50;;;;;;4592222;19;20425;-30
2023/04/05 00:37:50;;;;;;;146.13;66.53;;;11.30;81.80;;;;;;4591591;19;20404;-30
2023/04/05 00:39:23;;;;;;;118.00;57.00;;;11.30;81.60;;;;;;4594063;19;20816;-29
2023/04/05 00:40:56;;;;;;;106.07;55.30;;;11.20;81.20;;;;;;4593470;19;20445;-30
2023/04/05 00:42:28;;;;;;;99.05;51.42;;;11.30;81.10;;;;;;4594514;19;20457;-30
2023/04/05 00:44:02;;;;;;;95.87;52.77;;;11.30;81.50;;;;;;4593258;19;20085;-30
2023/04/05 00:45:35;;;;;;;90.67;48.67;;;11.30;81.40;;;;;;4592956;19;20480;-30
2023/04/05 00:47:07;;;;;;;92.90;50.28;;;11.30;81.30;;;;;;4592930;19;20445;-30
2023/04/05 00:48:38;;;;;;;94.90;49.92;;;11.20;81.30;;;;;;4592672;19;20279;-30
2023/04/05 00:50:11;;;;;;;83.88;47.60;;;11.20;81.20;;;;;;4591897;19;20026;-30
2023/04/05 00:51:42;;;;;;;87.83;48.47;;;11.20;81.20;;;;;;4590460;19;20011;-30
2023/04/05 00:53:15;;;;;;;;;;;11.20;81.00;;;;;;4592039;19;20475;-30
2023/04/05 00:54:46;;;;;;;75.45;41.40;;;11.20;81.40;;;;;;4593224;19;19970;-30
2023/04/05 00:56:17;;;;;;;78.00;46.22;;;11.20;81.20;;;;;;4592675;19;20015;-30
2023/04/05 00:57:50;;;;;;;82.47;48.57;;;11.20;81.20;;;;;;4592483;19;20026;-30
2023/04/05 00:59:21;;;;;;;100.28;59.63;;;11.20;81.00;;;;;;4592031;19;20457;-30
2023/04/05 01:00:58;;;;;;;88.93;51.40;;;11.20;80.90;;;;;;4591451;19;20010;-30
2023/04/05 01:02:38;;;;;;;94.30;53.40;;;11.20;81.10;;;;;;4592242;19;20019;-30
2023/04/05 01:04:10;;;;;;;89.23;53.37;;;11.20;81.00;;;;;;4592467;19;20441;-30
2023/04/05 01:05:41;;;;;;;91.10;54.70;;;11.20;80.60;;;;;;4592507;19;20848;-30
2023/04/05 01:07:23;;;;;;;85.13;52.85;;;11.20;80.60;;;;;;4591939;19;20353;-29
2023/04/05 01:09:22;;;;;;;119.90;77.13;;;11.10;80.90;;;;;;4589251;19;20411;-30
2023/04/05 01:10:56;;;;;;;75.17;45.37;;;11.20;81.00;;;;;;4590952;19;20470;-30
2023/04/05 01:12:31;;;;;;;70.70;39.73;;;11.20;80.90;;;;;;4591696;19;20437;-30
2023/04/05 01:14:05;;;;;;;64.23;37.60;;;11.10;80.70;;;;;;4590850;19;20457;-30
2023/04/05 01:15:36;;;;;;;69.78;41.10;;;11.10;80.60;;;;;;4592448;19;20465;-30
2023/04/05 01:17:08;;;;;;;72.50;40.72;;;11.20;80.60;;;;;;4592885;19;20023;-30
2023/04/05 01:18:45;;;;;;;75.60;44.97;;;11.10;80.50;;;;;;4591805;19;20018;-30
2023/04/05 01:20:17;;;;;;;81.73;44.23;;;11.20;80.70;;;;;;4592506;19;21093;-30
2023/04/05 01:22:20;;;;;;;66.45;40.60;;;11.20;80.80;;;;;;4591168;19;20558;-30
2023/04/05 01:24:11;;;;;;;73.17;40.63;;;11.20;80.90;;;;;;4590655;19;20089;-30
2023/04/05 01:26:04;;;;;;;73.53;41.67;;;11.10;80.90;;;;;;4591059;19;20501;-30
2023/04/05 01:28:02;;;;;;;72.93;45.23;;;11.10;80.90;;;;;;4591259;19;20556;-30
2023/04/05 01:29:37;;;;;;;76.83;43.17;;;11.10;81.00;;;;;;4588605;19;20448;-30
2023/04/05 01:31:15;;;;;;;82.17;47.20;;;11.10;80.60;;;;;;4588609;19;20456;-30
2023/04/05 01:33:07;;;;;;;75.30;44.47;;;11.10;80.80;;;;;;4588990;19;20452;-30
2023/04/05 01:34:50;;;;;;;72.97;41.87;;;11.10;80.60;;;;;;4588895;19;20435;-30
2023/04/05 01:36:40;;;;;;;77.60;41.55;;;11.10;80.20;;;;;;4588309;19;20445;-30
2023/04/05 01:38:16;;;;;;;77.28;43.90;;;11.10;80.40;;;;;;4588894;19;20015;-30
2023/04/05 01:39:49;;;;;;;79.70;46.23;;;11.10;80.30;;;;;;4588375;19;20007;-30
2023/04/05 01:41:22;;;;;;;84.23;46.83;;;11.10;80.20;;;;;;4587672;19;20830;-30
2023/04/05 01:42:53;;;;;;;75.63;47.35;;;11.10;80.00;;;;;;4591277;19;20457;-30
2023/04/05 01:44:29;;;;;;;75.37;43.90;;;11.10;80.60;;;;;;4590999;19;20118;-30
2023/04/05 01:46:00;;;;;;;72.45;42.60;;;11.10;80.00;;;;;;4590502;19;20468;-30
2023/04/05 01:47:31;;;;;;;71.60;42.78;;;11.10;79.90;;;;;;4590063;19;20082;-30
2023/04/05 01:49:03;;;;;;;;;;;11.10;79.80;;;;;;4591008;19;20017;-30
2023/04/05 01:50:34;;;;;;;65.37;40.07;;;11.10;80.00;;;;;;4589353;19;19918;-30
2023/04/05 01:52:07;;;;;;;67.13;39.73;;;11.10;79.70;;;;;;4588820;19;20823;-30
2023/04/05 01:53:38;;;;;;;64.03;39.97;;;11.10;79.60;;;;;;4588722;19;21004;-30
2023/04/05 01:55:10;;;;;;;67.53;40.50;;;11.10;79.60;;;;;;4588355;19;20022;-30
2023/04/05 01:56:42;;;;;;;68.25;40.67;;;11.10;79.40;;;;;;4587787;19;20502;-30
2023/04/05 01:58:15;;;;;;;65.53;40.50;;;11.10;79.40;;;;;;4590748;19;20082;-30
2023/04/05 01:59:47;;;;;;;63.03;37.27;;;11.10;79.60;;;;;;4590995;19;20469;-30
2023/04/05 02:01:20;;;;;;;69.07;37.77;;;11.00;79.20;;;;;;4589951;19;20600;-30
2023/04/05 02:02:53;;;;;;;60.80;36.70;;;11.00;79.00;;;;;;4591413;19;20471;-30
2023/04/05 02:04:25;;;;;;;60.93;35.87;;;11.00;79.30;;;;;;4591755;19;20934;-30
2023/04/05 02:05:57;;;;;;;63.53;36.23;;;11.00;79.30;;;;;;4591245;19;20501;-30
2023/04/05 02:07:30;;;;;;;75.13;43.00;;;11.00;79.00;;;;;;4590901;19;20461;-30
2023/04/05 02:09:01;;;;;;;80.53;44.83;;;10.90;79.10;;;;;;4590470;19;20457;-30
2023/04/05 02:10:33;;;;;;;80.10;46.65;;;10.90;79.50;;;;;;4590006;19;20014;-30
2023/04/05 02:12:05;;;;;;;86.57;49.57;;;10.90;80.70;;;;;;4589935;19;20018;-30
2023/04/05 02:13:37;;;;;;;88.88;52.72;;;10.90;81.70;;;;;;4589844;19;20429;-30
2023/04/05 02:15:09;;;;;;;91.13;55.60;;;10.90;81.30;;;;;;4592132;19;20018;-30
2023/04/05 02:16:42;;;;;;;85.07;52.87;;;11.00;81.30;;;;;;4591556;19;20582;-30
2023/04/05 02:18:13;;;;;;;86.55;49.95;;;11.00;81.10;;;;;;4591214;19;20484;-30
2023/04/05 02:19:45;;;;;;;89.07;54.55;;;11.10;80.70;;;;;;4590226;19;20031;-30
2023/04/05 02:21:17;;;;;;;89.63;53.43;;;11.00;80.20;;;;;;4587407;19;20014;-30
2023/04/05 02:22:48;;;;;;;80.05;50.45;;;11.00;80.50;;;;;;4590002;19;20461;-30
2023/04/05 02:24:20;;;;;;;84.20;51.80;;;11.00;80.30;;;;;;4591960;19;20019;-30
2023/04/05 02:25:51;;;;;;;83.23;50.57;;;11.00;80.10;;;;;;4589040;19;20341;-30
2023/04/05 02:27:23;;;;;;;88.30;52.28;;;11.00;80.10;;;;;;4589657;19;20470;-30
2023/04/05 02:28:55;;;;;;;85.20;50.20;;;11.00;80.10;;;;;;4589844;19;20022;-29
2023/04/05 02:30:27;;;;;;;83.53;53.08;;;11.00;80.00;;;;;;4589634;19;20436;-30
2023/04/05 02:32:00;;;;;;;86.17;53.47;;;11.00;79.70;;;;;;4592027;19;20010;-30
2023/04/05 02:33:32;;;;;;;89.07;51.00;;;11.00;80.00;;;;;;4591306;19;20464;-30
2023/04/05 02:35:06;;;;;;;87.27;52.47;;;11.00;79.90;;;;;;4590169;19;20483;-29
2023/04/05 02:36:37;;;;;;;92.82;55.25;;;10.90;80.00;;;;;;4590080;19;20448;-29
2023/04/05 02:38:10;;;;;;;89.13;54.47;;;11.00;80.30;;;;;;4591144;19;20336;-30
2023/04/05 02:39:42;;;;;;;86.13;54.40;;;10.90;80.30;;;;;;4591243;19;20432;-29
2023/04/05 02:41:15;;;;;;;80.27;52.83;;;11.00;80.40;;;;;;4591129;19;21095;-29
2023/04/05 02:42:47;;;;;;;88.18;52.35;;;11.00;80.40;;;;;;4591041;19;20818;-29
2023/04/05 02:44:18;;;;;;;84.75;48.78;;;10.90;80.20;;;;;;4590359;19;20183;-30
2023/04/05 02:45:51;;;;;;;80.73;47.87;;;10.90;80.10;;;;;;4589656;19;20188;-29
2023/04/05 02:47:23;;;;;;;79.45;46.55;;;10.90;80.20;;;;;;4590532;19;20416;-29
2023/04/05 02:48:54;;;;;;;;;;;10.90;80.40;;;;;;4591437;19;20020;-30
2023/04/05 02:50:27;;;;;;;76.45;44.67;;;10.90;80.70;;;;;;4591453;19;19946;-30
2023/04/05 02:51:58;;;;;;;78.13;44.63;;;10.90;80.30;;;;;;4591315;19;20006;-30
2023/04/05 02:53:30;;;;;;;78.90;45.23;;;10.90;80.30;;;;;;4591519;19;20011;-29
2023/04/05 02:55:05;;;;;;;;;;;10.90;80.20;;;;;;4591715;19;20478;-30
2023/04/05 02:56:37;;;;;;;86.47;48.37;;;10.90;80.40;;;;;;4591417;19;19962;-29
2023/04/05 02:58:13;;;;;;;100.40;58.77;;;10.90;80.00;;;;;;4591523;19;20425;-29
2023/04/05 02:59:44;;;;;;;87.57;56.93;;;10.90;79.80;;;;;;4588576;19;20440;-29
2023/04/05 03:01:16;;;;;;;86.30;54.80;;;10.90;79.90;;;;;;4590104;19;20544;-29
2023/04/05 03:02:49;;;;;;;86.43;53.07;;;10.90;79.90;;;;;;4590885;19;20475;-29
2023/04/05 03:04:25;;;;;;;85.53;52.47;;;10.80;79.60;;;;;;4590056;19;20507;-29
2023/04/05 03:06:08;;;;;;;89.17;50.80;;;10.90;79.80;;;;;;4589528;19;20464;-30
2023/04/05 03:07:45;;;;;;;81.93;51.53;;;10.90;79.70;;;;;;4589412;19;20429;-29
2023/04/05 03:09:18;;;;;;;83.77;51.20;;;10.90;79.70;;;;;;4590410;19;20996;-30
2023/04/05 03:10:51;;;;;;;80.13;49.03;;;10.90;79.60;;;;;;4590840;19;20482;-30
2023/04/05 03:12:22;;;;;;;85.07;49.88;;;10.80;79.20;;;;;;4591349;19;20468;-30
2023/04/05 03:13:55;;;;;;;70.10;43.90;;;10.80;79.50;;;;;;4590647;19;20337;-30
2023/04/05 03:15:28;;;;;;;77.30;45.57;;;10.90;79.80;;;;;;4589695;19;20468;-29
2023/04/05 03:17:00;;;;;;;81.70;47.17;;;10.80;79.90;;;;;;4588975;19;20445;-30
2023/04/05 03:18:31;;;;;;;80.28;48.00;;;10.80;79.80;;;;;;4590694;19;20018;-29
2023/04/05 03:20:07;;;;;;;82.40;49.17;;;10.80;79.70;;;;;;4590424;19;20348;-30
2023/04/05 03:23:30;;;;;;;82.93;46.90;;;10.80;79.60;;;;;;4591215;19;20412;-30
2023/04/05 03:25:02;;;;;;;83.70;47.43;;;10.70;80.80;;;;;;4591017;19;20828;-30
2023/04/05 03:26:34;;;;;;;87.53;50.63;;;10.70;80.10;;;;;;4590311;19;20441;-30
2023/04/05 03:28:09;;;;;;;77.13;44.90;;;10.70;80.00;;;;;;4590683;19;20437;-30
2023/04/05 03:29:42;;;;;;;67.87;41.07;;;10.70;80.00;;;;;;4588881;19;20389;-30
2023/04/05 03:31:14;;;;;;;68.53;39.13;;;10.70;79.80;;;;;;4589955;19;20795;-30
2023/04/05 03:32:46;;;;;;;72.33;43.13;;;10.70;79.70;;;;;;4589383;19;20783;-30
2023/04/05 03:34:18;;;;;;;81.45;47.30;;;10.70;79.50;;;;;;4590218;19;20819;-30
2023/04/05 03:35:50;;;;;;;78.37;48.27;;;10.70;79.70;;;;;;4590376;19;20455;-30
2023/04/05 03:37:21;;;;;;;84.68;46.05;;;10.70;79.50;;;;;;4589183;19;20776;-30
2023/04/05 03:38:54;;;;;;;70.70;43.10;;;10.70;79.50;;;;;;4589702;19;20017;-30
2023/04/05 03:40:26;;;;;;;65.73;39.87;;;10.70;79.50;;;;;;4590391;19;20440;-30
2023/04/05 03:41:58;;;;;;;62.60;40.23;;;10.70;79.60;;;;;;4589737;19;20670;-30
2023/04/05 03:43:33;;;;;;;66.57;41.20;;;10.80;79.70;;;;;;4587688;19;21102;-30
2023/04/05 03:45:05;;;;;;;78.38;45.92;;;10.80;79.70;;;;;;4588219;19;20480;-30
2023/04/05 03:46:36;;;;;;;93.90;52.25;;;10.80;79.80;;;;;;4589310;19;20022;-29
2023/04/05 03:48:08;;;;;;;73.33;42.40;;;10.80;79.40;;;;;;4590652;19;20329;-30
2023/04/05 03:49:39;;;;;;;66.05;38.92;;;10.80;79.70;;;;;;4589518;19;20440;-29
2023/04/05 03:51:10;;;;;;;58.92;33.65;;;10.80;79.20;;;;;;4590143;19;20018;-29
2023/04/05 03:52:42;;;;;;;55.17;33.53;;;10.80;79.20;;;;;;4590584;19;20022;-30
2023/04/05 03:54:13;;;;;;;51.13;32.75;;;10.80;79.60;;;;;;4590471;19;20014;-30
2023/04/05 03:55:48;;;;;;;48.63;31.17;;;10.80;79.30;;;;;;4590627;19;20010;-28
2023/04/05 03:57:21;;;;;;;49.93;32.30;;;10.80;79.40;;;;;;4588819;19;20018;-29
2023/04/05 03:58:52;;;;;;;56.22;33.00;;;10.80;79.50;;;;;;4588498;19;20544;-30
2023/04/05 04:00:23;;;;;;;64.38;34.13;;;10.80;79.20;;;;;;4589460;19;20452;-29
2023/04/05 04:01:56;;;;;;;59.23;36.80;;;10.80;79.20;;;;;;4587726;19;20024;-30
2023/04/05 04:03:27;;;;;;;70.80;41.20;;;10.90;79.20;;;;;;4589551;19;20429;-30
2023/04/05 04:04:58;;;;;;;73.65;43.33;;;11.00;78.60;;;;;;4589364;19;20574;-30
2023/04/05 04:06:31;;;;;;;84.87;49.73;;;11.00;78.30;;;;;;4589707;19;20015;-30
2023/04/05 04:08:02;;;;;;;80.88;48.22;;;11.00;78.30;;;;;;4588456;19;20433;-29
2023/04/05 04:09:35;;;;;;;86.17;47.13;;;11.00;78.60;;;;;;4589832;19;20010;-30
2023/04/05 04:11:07;;;;;;;77.20;45.78;;;11.10;78.60;;;;;;4589882;19;20444;-30
2023/04/05 04:12:38;;;;;;;71.00;42.25;;;11.00;78.30;;;;;;4589158;19;20014;-29
2023/04/05 04:14:09;;;;;;;65.65;40.47;;;11.00;78.50;;;;;;4589139;19;20015;-30
2023/04/05 04:15:41;;;;;;;60.90;37.20;;;11.00;78.40;;;;;;4588359;19;20025;-29
2023/04/05 04:17:28;;;;;;;64.30;37.35;;;11.10;78.40;;;;;;4589248;19;20014;-30
2023/04/05 04:19:00;;;;;;;65.47;38.57;;;11.00;78.60;;;;;;4589378;19;20341;-30
2023/04/05 04:20:31;;;;;;;64.38;37.70;;;11.00;78.70;;;;;;4589482;19;20433;-30
2023/04/05 04:22:03;;;;;;;65.45;40.08;;;11.10;78.70;;;;;;4587379;19;20480;-30
2023/04/05 04:23:37;;;;;;;76.68;43.03;;;11.20;78.50;;;;;;4588808;19;20022;-30
2023/04/05 04:25:09;;;;;;;75.63;40.70;;;11.10;78.50;;;;;;4589883;19;20019;-30
2023/04/05 04:26:41;;;;;;;84.57;45.13;;;11.00;78.70;;;;;;4590608;19;20797;-30
2023/04/05 04:28:18;;;;;;;97.18;53.95;;;11.00;78.90;;;;;;4590140;19;20484;-30
2023/04/05 04:29:55;;;;;;;91.00;50.53;;;11.00;78.90;;;;;;4589779;19;20009;-30
2023/04/05 04:31:26;;;;;;;88.63;51.90;;;11.00;78.90;;;;;;4590394;19;20452;-30
2023/04/05 04:32:58;;;;;;;88.68;52.35;;;10.90;79.00;;;;;;4588271;19;20457;-30
2023/04/05 04:34:33;;;;;;;87.30;47.93;;;10.90;79.20;;;;;;4589069;19;20479;-30
2023/04/05 04:36:07;;;;;;;84.17;45.67;;;10.90;79.20;;;;;;4588142;19;20488;-30
2023/04/05 04:37:45;;;;;;;68.93;43.03;;;10.90;79.30;;;;;;4589019;19;20449;-30
2023/04/05 04:39:18;;;;;;;74.27;40.90;;;10.90;79.10;;;;;;4588860;19;20425;-30
2023/04/05 04:40:49;;;;;;;72.50;40.67;;;10.90;79.20;;;;;;4590418;19;20826;-30
2023/04/05 04:42:21;;;;;;;79.30;43.95;;;10.90;79.30;;;;;;4588279;19;20019;-30
2023/04/05 04:43:53;;;;;;;69.90;41.00;;;10.90;79.10;;;;;;4590366;19;20010;-30
2023/04/05 04:45:25;;;;;;;85.47;49.90;;;10.80;79.30;;;;;;4592658;19;20507;-30
2023/04/05 04:46:56;;;;;;;90.78;50.97;;;10.90;79.20;;;;;;4592846;19;20480;-30
2023/04/05 04:48:28;;;;;;;84.78;45.88;;;10.90;79.40;;;;;;4593811;19;20019;-30
2023/04/05 04:49:59;;;;;;;86.32;45.80;;;10.90;79.40;;;;;;4594819;19;20021;-30
2023/04/05 04:51:33;;;;;;;79.35;43.45;;;10.90;79.30;;;;;;4592123;19;20033;-30
2023/04/05 04:53:06;;;;;;;85.27;51.33;;;10.80;79.50;;;;;;4592054;19;20015;-30
2023/04/05 04:54:41;;;;;;;;;;;10.80;79.70;;;;;;4594643;19;20480;-30
2023/04/05 04:56:12;;;;;;;98.77;57.13;;;10.90;79.90;;;;;;4594930;19;19925;-30
2023/04/05 04:57:44;;;;;;;116.63;73.20;;;10.90;79.80;;;;;;4595311;19;20472;-30
2023/04/05 04:59:16;;;;;;;86.82;53.40;;;10.80;79.70;;;;;;4593515;19;20437;-30
2023/04/05 05:00:47;;;;;;;81.38;48.65;;;10.80;79.70;;;;;;4591506;19;20026;-30
2023/04/05 05:02:23;;;;;;;64.35;40.10;;;10.80;79.90;;;;;;4590766;19;20607;-30
2023/04/05 05:03:54;;;;;;;72.67;40.67;;;10.80;80.00;;;;;;4593485;19;20010;-30
2023/04/05 05:05:26;;;;;;;71.90;43.00;;;10.80;80.00;;;;;;4596008;19;21024;-30
2023/04/05 05:06:58;;;;;;;76.17;42.37;;;10.80;80.10;;;;;;4593910;19;20010;-30
2023/04/05 05:08:29;;;;;;;72.60;42.70;;;10.80;80.20;;;;;;4592561;19;21020;-30
2023/04/05 05:10:01;;;;;;;72.45;43.88;;;10.80;80.30;;;;;;4593166;19;20011;-30
2023/04/05 05:11:32;;;;;;;67.05;41.53;;;10.90;80.50;;;;;;4593385;19;20475;-30
2023/04/05 05:13:03;;;;;;;67.75;40.15;;;10.80;80.60;;;;;;4591436;19;20042;-30
2023/04/05 05:14:34;;;;;;;71.40;41.30;;;10.80;80.70;;;;;;4591616;19;20023;-30
2023/04/05 05:16:07;;;;;;;72.63;41.75;;;10.80;80.50;;;;;;4591795;19;20014;-30
2023/04/05 05:17:39;;;;;;;63.30;40.83;;;10.80;80.50;;;;;;4593020;19;20010;-30
2023/04/05 05:19:10;;;;;;;69.07;42.72;;;10.90;80.50;;;;;;4591312;19;20481;-30
2023/04/05 05:20:41;;;;;;;74.47;44.60;;;10.80;80.60;;;;;;4593522;19;20010;-30
2023/04/05 05:22:12;;;;;;;70.70;42.88;;;10.90;80.90;;;;;;4591154;19;20410;-30
2023/04/05 05:23:45;;;;;;;75.00;42.07;;;10.90;80.90;;;;;;4590594;19;20547;-30
2023/04/05 05:25:17;;;;;;;84.20;46.30;;;10.90;81.60;;;;;;4590800;19;20445;-29
2023/04/05 05:26:49;;;;;;;81.10;47.00;;;10.90;81.10;;;;;;4590534;19;20460;-29
2023/04/05 05:28:24;;;;;;;84.07;48.57;;;10.90;81.20;;;;;;4590406;19;20026;-31
2023/04/05 05:29:56;;;;;;;77.27;46.30;;;10.90;81.50;;;;;;4593731;19;20528;-30
2023/04/05 05:31:28;;;;;;;79.40;45.00;;;10.90;82.10;;;;;;4592927;19;20469;-29
2023/04/05 05:33:01;;;;;;;78.60;44.67;;;10.90;81.50;;;;;;4590599;19;20022;-30
2023/04/05 05:34:33;;;;;;;77.23;44.00;;;10.90;81.40;;;;;;4592030;19;20485;-29
2023/04/05 05:36:06;;;;;;;69.73;39.67;;;11.00;81.60;;;;;;4592204;19;20464;-30
2023/04/05 05:37:40;;;;;;;70.40;39.40;;;11.00;81.70;;;;;;4589936;19;21057;-30
2023/04/05 05:39:11;;;;;;;59.33;32.47;;;11.00;81.60;;;;;;4590294;19;20488;-31
2023/04/05 05:40:45;;;;;;;59.28;33.13;;;11.10;81.80;;;;;;4590712;19;20040;-29
2023/04/05 05:42:23;;;;;;;53.30;32.43;;;11.10;81.50;;;;;;4589879;19;20003;-30
2023/04/05 05:43:54;;;;;;;52.00;31.88;;;11.10;81.40;;;;;;4590444;19;20461;-29
2023/04/05 05:45:41;;;;;;;50.42;29.77;;;11.20;81.50;;;;;;4590158;19;20358;-30
2023/04/05 05:47:13;;;;;;;48.03;26.70;;;11.20;81.70;;;;;;4590149;19;20488;-30
2023/04/05 05:48:44;;;;;;;43.10;26.27;;;11.30;81.30;;;;;;4589571;19;20513;-29
2023/04/05 05:50:16;;;;;;;39.28;24.08;;;11.30;81.00;;;;;;4592130;19;20482;-30
2023/04/05 05:51:47;;;;;;;41.80;27.08;;;11.30;81.30;;;;;;4592131;19;20472;-29
2023/04/05 05:53:19;;;;;;;70.82;57.28;;;11.30;81.20;;;;;;4590356;19;20015;-30
2023/04/05 05:54:53;;;;;;;52.05;37.63;;;11.30;80.50;;;;;;4590320;19;20366;-30
2023/04/05 05:56:30;;;;;;;36.03;24.83;;;11.30;81.00;;;;;;4590752;19;20379;-30
2023/04/05 05:58:11;;;;;;;29.23;18.90;;;11.40;81.00;;;;;;4590504;19;20876;-30
2023/04/05 05:59:46;;;;;;;29.10;19.47;;;11.40;81.00;;;;;;4587952;19;20457;-30
2023/04/05 06:01:18;;;;;;;31.23;18.87;;;11.40;81.40;;;;;;4588824;19;20469;-30
2023/04/05 06:02:53;;;;;;;33.00;20.13;;;11.40;81.20;;;;;;4588295;19;20483;-29
2023/04/05 06:04:24;;;;;;;30.73;18.77;;;11.40;81.40;;;;;;4592097;19;20896;-30
2023/04/05 06:05:56;;;;;;;27.52;20.45;;;11.40;81.00;;;;;;4588317;19;20022;-30
2023/04/05 06:07:27;;;;;;;32.03;21.47;;;11.50;80.80;;;;;;4590203;19;20010;-29
2023/04/05 06:08:59;;;;;;;26.38;17.20;;;11.50;80.50;;;;;;4592266;19;20528;-30
2023/04/05 06:10:30;;;;;;;26.55;16.23;;;11.50;80.70;;;;;;4590839;19;20030;-30
2023/04/05 06:12:03;;;;;;;25.70;16.25;;;11.50;80.30;;;;;;4590702;19;20030;-29
2023/04/05 06:13:38;;;;;;;23.40;15.57;;;11.50;80.20;;;;;;4589106;19;20014;-29
2023/04/05 06:15:13;;;;;;;22.88;15.43;;;11.50;80.80;;;;;;4590302;19;20497;-31
2023/04/05 06:16:49;;;;;;;23.27;15.07;;;11.50;80.90;;;;;;4588094;19;20543;-31
2023/04/05 06:18:21;;;;;;;24.70;16.90;;;11.50;80.70;;;;;;4589854;19;20457;-30
2023/04/05 06:19:52;;;;;;;20.15;14.07;;;11.50;80.30;;;;;;4591026;19;20487;-30
2023/04/05 06:21:23;;;;;;;31.83;24.80;;;11.60;80.80;;;;;;4589326;19;20010;-30
2023/04/05 06:22:54;;;;;;;25.70;14.88;;;11.70;80.80;;;;;;4587394;19;20015;-30
2023/04/05 06:24:26;;;;;;;26.95;17.60;;;11.80;80.60;;;;;;4591563;19;20342;-30
2023/04/05 06:25:57;;;;;;;22.38;16.65;;;11.90;80.60;;;;;;4591105;19;20022;-30
2023/04/05 06:27:28;;;;;;;25.08;15.88;;;12.00;80.90;;;;;;4590686;19;20011;-30
2023/04/05 06:29:00;;;;;;;24.25;15.85;;;12.00;80.70;;;;;;4591091;19;20015;-30
2023/04/05 06:30:32;;;;;;;20.77;14.15;;;12.10;80.60;;;;;;4590503;19;20352;-30
2023/04/05 06:32:03;;;;;;;18.87;12.47;;;12.10;81.10;;;;;;4590479;19;20372;-30
2023/04/05 06:33:34;;;;;;;19.48;12.90;;;12.10;80.70;;;;;;4589210;19;20457;-30
2023/04/05 06:35:07;;;;;;;20.85;13.13;;;12.20;80.60;;;;;;4587866;19;20014;-30
2023/04/05 06:36:38;;;;;;;20.48;13.32;;;12.20;80.80;;;;;;4592242;19;20047;-30
2023/04/05 06:38:09;;;;;;;21.17;13.60;;;12.20;81.00;;;;;;4591288;19;20364;-30
2023/04/05 06:39:40;;;;;;;24.77;15.15;;;12.20;81.00;;;;;;4591287;19;20010;-30
2023/04/05 06:41:12;;;;;;;21.02;13.68;;;12.20;81.00;;;;;;4590891;19;20078;-30
2023/04/05 06:42:44;;;;;;;21.42;14.13;;;12.20;81.00;;;;;;4590373;19;20022;-31
2023/04/05 06:44:18;;;;;;;18.73;13.07;;;12.10;81.20;;;;;;4590372;19;20015;-30
2023/04/05 06:45:56;;;;;;;19.47;12.40;;;11.90;81.50;;;;;;4590993;19;20475;-30
2023/04/05 06:47:36;;;;;;;17.67;10.60;;;11.80;81.20;;;;;;4591140;19;20440;-30
2023/04/05 06:49:08;;;;;;;16.23;9.87;;;11.80;81.20;;;;;;4568259;19;20489;-30
2023/04/05 06:50:40;;;;;;;14.43;9.20;;;11.80;80.80;;;;;;4591472;19;20783;-30
2023/04/05 06:52:12;;;;;;;14.60;9.53;;;11.80;80.40;;;;;;4589320;19;20465;-30
2023/04/05 06:53:44;;;;;;;15.55;9.70;;;11.70;80.50;;;;;;4588763;19;20544;-30
2023/04/05 06:55:18;;;;;;;15.13;10.73;;;11.70;80.50;;;;;;4589331;19;20002;-30
2023/04/05 06:56:55;;;;;;;16.73;9.97;;;11.70;80.70;;;;;;4590349;19;20591;-30
2023/04/05 07:01:25;;;;;;;20.93;11.30;;;11.70;81.30;;;;;;4587152;19;20457;-30
2023/04/05 07:03:11;;;;;;;20.67;13.27;;;11.70;81.40;;;;;;4588979;19;20425;-30
2023/04/05 07:04:43;;;;;;;14.32;9.75;;;11.70;81.10;;;;;;4589538;19;20469;-30
2023/04/05 07:06:14;;;;;;;14.13;10.57;;;11.70;81.20;;;;;;4590223;19;20015;-30
2023/04/05 07:07:47;;;;;;;14.50;9.10;;;11.70;80.90;;;;;;4589586;19;20011;-30
2023/04/05 07:09:21;;;;;;;15.60;9.17;;;11.80;81.60;;;;;;4588966;19;20029;-30
2023/04/05 07:10:53;;;;;;;14.23;8.40;;;11.70;81.40;;;;;;4590628;19;21028;-30
2023/04/05 07:12:25;;;;;;;13.30;7.60;;;11.70;81.10;;;;;;4589655;19;20488;-30
2023/04/05 07:13:58;;;;;;;14.00;8.43;;;11.70;81.50;;;;;;4587169;19;20516;-30
2023/04/05 07:15:29;;;;;;;14.10;8.33;;;11.70;81.00;;;;;;4589827;19;21128;-30
2023/04/05 07:17:00;;;;;;;15.00;9.05;;;11.80;80.60;;;;;;4588456;19;20444;-31
2023/04/05 07:18:32;;;;;;;14.32;8.10;;;11.80;80.60;;;;;;4591008;19;20038;-30
2023/04/05 07:20:07;;;;;;;14.48;7.57;;;11.80;81.00;;;;;;4589269;19;20018;-30
2023/04/05 07:21:38;;;;;;;17.23;8.60;;;11.80;80.80;;;;;;4588924;19;20021;-30
2023/04/05 07:23:09;;;;;;;10.32;6.65;;;11.80;81.40;;;;;;4586931;19;20464;-30
2023/04/05 07:24:41;;;;;;;17.23;8.38;;;11.80;81.30;;;;;;4591307;19;20021;-30
2023/04/05 07:26:27;;;;;;;14.57;8.03;;;11.80;81.40;;;;;;4591056;19;19999;-30
2023/04/05 07:27:59;;;;;;;12.27;7.30;;;11.80;81.40;;;;;;4588639;19;20497;-30
2023/04/05 07:29:31;;;;;;;12.15;7.72;;;11.80;80.60;;;;;;4590280;19;20488;-30
2023/04/05 07:31:04;;;;;;;12.55;6.20;;;11.80;81.10;;;;;;4587693;19;20120;-30
2023/04/05 07:32:36;;;;;;;18.37;10.10;;;11.80;80.00;;;;;;4586823;19;20034;-30
2023/04/05 07:34:08;;;;;;;12.33;7.63;;;11.80;79.60;;;;;;4588803;19;20465;-30
2023/04/05 07:35:39;;;;;;;11.90;6.78;;;11.80;80.10;;;;;;4589785;19;20551;-30
2023/04/05 07:37:11;;;;;;;;;;;11.70;79.80;;;;;;4591783;19;20086;-30
2023/04/05 07:38:43;;;;;;;8.05;3.40;;;11.70;79.10;;;;;;4590031;19;19978;-30
2023/04/05 07:40:15;;;;;;;5.33;3.23;;;11.70;78.00;;;;;;4589774;19;20085;-30
2023/04/05 07:41:47;;;;;;;7.03;3.55;;;11.80;77.80;;;;;;4588863;19;20472;-30
2023/04/05 07:43:18;;;;;;;9.40;4.43;;;11.80;78.20;;;;;;4588442;19;20010;-30
2023/04/05 07:44:53;;;;;;;9.77;4.93;;;11.80;78.40;;;;;;4587538;19;20014;-30
2023/04/05 07:46:29;;;;;;;8.20;4.97;;;11.80;78.20;;;;;;4587019;19;20548;-30
2023/04/05 07:48:03;;;;;;;9.73;4.90;;;11.80;78.90;;;;;;4587160;19;20397;-30
2023/04/05 07:49:36;;;;;;;9.70;5.60;;;11.90;78.90;;;;;;4587995;19;20429;-31
2023/04/05 07:51:09;;;;;;;12.40;5.50;;;11.90;79.30;;;;;;4587707;19;20544;-30
2023/04/05 07:52:40;;;;;;;8.60;4.07;;;11.90;79.10;;;;;;4587265;19;20452;-31
2023/04/05 07:54:12;;;;;;;;;;;11.90;79.10;;;;;;4589087;19;20011;-30
2023/04/05 07:55:45;;;;;;;6.97;3.40;;;11.90;79.00;;;;;;4589642;19;19950;-30
2023/04/05 07:57:18;;;;;;;9.33;4.17;;;11.90;78.60;;;;;;4589482;19;20015;-30
2023/04/05 07:58:53;;;;;;;5.78;3.08;;;11.90;78.80;;;;;;4587984;19;20496;-30
2023/04/05 08:00:25;;;;;;;10.03;3.80;;;11.90;78.80;;;;;;4587894;19;20478;-31